createdAt,value
2023-01-29T00:01:23.858Z,72.48
2023-01-29T00:03:51.728Z,72.43
2023-01-29T00:06:18.600Z,72.30
2023-01-29T00:08:45.592Z,72.56
2023-01-29T00:11:13.623Z,72.81
2023-01-29T00:13:40.435Z,72.72
2023-01-29T00:16:07.439Z,72.83
2023-01-29T00:18:38.499Z,73.37
2023-01-29T00:21:10.735Z,73.52
2023-01-29T00:23:37.615Z,73.32
2023-01-29T00:26:04.804Z,73.19
2023-01-29T00:28:31.709Z,73.44
2023-01-29T00:30:59.291Z,73.72
2023-01-29T00:33:26.153Z,73.57
2023-01-29T00:35:52.953Z,73.67
2023-01-29T00:38:19.676Z,73.11
2023-01-29T00:41:01.658Z,73.14
2023-01-29T00:43:44.076Z,72.79
2023-01-29T00:46:11.327Z,72.71
2023-01-29T00:48:38.129Z,72.27
2023-01-29T00:51:07.545Z,72.51
2023-01-29T00:53:34.364Z,71.99
2023-01-29T00:56:01.153Z,71.75
2023-01-29T00:58:34.297Z,71.52
2023-01-29T01:01:02.801Z,71.51
2023-01-29T01:03:30.188Z,71.39
2023-01-29T01:06:12.341Z,71.08
2023-01-29T01:08:54.493Z,70.50
2023-01-29T01:11:21.638Z,70.60
2023-01-29T01:13:48.362Z,70.24
2023-01-29T01:16:19.218Z,70.03
2023-01-29T01:18:46.123Z,70.55
2023-01-29T01:21:13.304Z,70.06
2023-01-29T01:23:40.179Z,70.13
2023-01-29T01:26:11.108Z,70.39
2023-01-29T01:28:38.921Z,70.53
2023-01-29T01:31:14.286Z,70.64
2023-01-29T01:33:41.452Z,70.79
2023-01-29T01:36:11.608Z,71.22
2023-01-29T01:38:44.704Z,71.72
2023-01-29T01:41:13.815Z,71.59
2023-01-29T01:43:58.464Z,71.28
2023-01-29T01:46:28.571Z,71.79
2023-01-29T01:49:03.029Z,71.99
2023-01-29T01:51:33.282Z,72.24
2023-01-29T01:54:08.399Z,72.31
2023-01-29T01:56:43.534Z,72.37
2023-01-29T01:59:15.542Z,72.70
2023-01-29T02:01:47.967Z,72.62
2023-01-29T02:04:34.158Z,72.93
2023-01-29T02:07:18.970Z,72.88
2023-01-29T02:09:53.288Z,72.29
2023-01-29T02:12:22.372Z,72.30
2023-01-29T02:14:51.514Z,72.09
2023-01-29T02:17:20.171Z,71.40
2023-01-29T02:19:57.350Z,70.67
2023-01-29T02:22:29.372Z,70.99
2023-01-29T02:24:56.428Z,71.08
2023-01-29T02:27:46.046Z,70.90
2023-01-29T02:30:22.955Z,70.77
2023-01-29T02:33:13.901Z,71.18
2023-01-29T02:35:51.099Z,71.00
2023-01-29T02:38:35.050Z,70.86
2023-01-29T02:41:08.181Z,70.76
2023-01-29T02:43:54.920Z,70.78
2023-01-29T02:46:40.426Z,71.04
2023-01-29T02:49:10.461Z,71.05
2023-01-29T02:51:49.974Z,70.51
2023-01-29T02:54:39.701Z,70.76
2023-01-29T02:57:18.468Z,70.68
2023-01-29T02:59:54.313Z,70.77
2023-01-29T03:02:33.614Z,70.51
2023-01-29T03:05:04.933Z,70.34
2023-01-29T03:07:42.784Z,70.36
2023-01-29T03:10:37.199Z,70.55
2023-01-29T03:13:13.467Z,70.28
2023-01-29T03:15:51.469Z,70.46
2023-01-29T03:18:36.841Z,70.34
2023-01-29T03:21:26.636Z,70.00
2023-01-29T03:24:12.713Z,69.77
2023-01-29T03:26:58.206Z,69.43
2023-01-29T03:29:48.099Z,69.36
2023-01-29T03:32:18.845Z,69.26
2023-01-29T03:34:52.010Z,69.52
2023-01-29T03:37:30.101Z,69.82
2023-01-29T03:39:57.020Z,69.88
2023-01-29T03:42:33.411Z,69.77
2023-01-29T03:45:08.521Z,69.05
2023-01-29T03:48:04.349Z,68.73
2023-01-29T03:50:50.638Z,68.82
2023-01-29T03:53:31.832Z,68.48
2023-01-29T03:56:08.653Z,68.36
2023-01-29T03:58:43.820Z,68.41
2023-01-29T04:01:12.736Z,67.38
2023-01-29T04:03:48.373Z,66.99
2023-01-29T04:06:20.731Z,67.15
2023-01-29T04:09:03.578Z,67.01
2023-01-29T04:11:33.766Z,67.39
2023-01-29T04:14:01.200Z,67.47
2023-01-29T04:16:35.058Z,67.49
2023-01-29T04:19:23.873Z,67.61
2023-01-29T04:22:00.510Z,67.48
2023-01-29T04:24:27.524Z,67.35
2023-01-29T04:27:05.714Z,66.88
2023-01-29T04:29:48.703Z,66.86
2023-01-29T04:32:32.026Z,66.95
2023-01-29T04:35:07.827Z,66.60
2023-01-29T04:37:44.157Z,65.86
2023-01-29T04:40:18.533Z,65.14
2023-01-29T04:42:59.796Z,64.96
2023-01-29T04:45:39.521Z,65.10
2023-01-29T04:48:21.635Z,64.97
2023-01-29T04:51:10.286Z,64.69
2023-01-29T04:53:52.785Z,64.52
2023-01-29T04:56:26.406Z,64.48
2023-01-29T04:58:59.792Z,64.41
2023-01-29T05:01:30.376Z,64.51
2023-01-29T05:03:58.380Z,64.50
2023-01-29T05:06:26.008Z,64.23
2023-01-29T05:08:53.918Z,64.14
2023-01-29T05:11:20.773Z,63.97
2023-01-29T05:13:49.148Z,63.93
2023-01-29T05:16:23.993Z,63.99
2023-01-29T05:18:51.775Z,63.88
2023-01-29T05:21:19.746Z,64.10
2023-01-29T05:23:57.621Z,64.22
2023-01-29T05:26:40.375Z,63.95
2023-01-29T05:29:07.299Z,63.73
2023-01-29T05:31:34.175Z,63.89
2023-01-29T05:34:00.955Z,64.28
2023-01-29T05:36:27.810Z,64.36
2023-01-29T05:38:54.595Z,64.05
2023-01-29T05:41:21.282Z,63.87
2023-01-29T05:43:48.050Z,64.08
2023-01-29T05:46:14.834Z,64.52
2023-01-29T05:48:41.614Z,64.40
2023-01-29T05:51:08.342Z,64.57
2023-01-29T05:53:35.123Z,64.71
2023-01-29T05:56:04.033Z,64.66
2023-01-29T05:58:32.149Z,64.46
2023-01-29T06:00:59.035Z,64.74
2023-01-29T06:03:25.827Z,65.40
2023-01-29T06:05:52.568Z,66.27
2023-01-29T06:08:19.410Z,66.85
2023-01-29T06:10:46.144Z,67.36
2023-01-29T06:13:12.954Z,67.66
2023-01-29T06:15:40.977Z,67.80
2023-01-29T06:18:07.813Z,67.92
2023-01-29T06:20:34.533Z,67.99
2023-01-29T06:23:01.292Z,67.74
2023-01-29T06:25:28.382Z,67.90
2023-01-29T06:27:56.599Z,68.05
2023-01-29T06:30:24.533Z,68.50
2023-01-29T06:32:51.337Z,68.52
2023-01-29T06:35:18.258Z,68.55
2023-01-29T06:37:45.003Z,68.23
2023-01-29T06:40:12.328Z,68.45
2023-01-29T06:42:39.031Z,68.59
2023-01-29T06:45:09.484Z,68.50
2023-01-29T06:47:36.274Z,68.80
2023-01-29T06:50:03.799Z,69.06
2023-01-29T06:52:30.628Z,68.98
2023-01-29T06:54:57.440Z,68.76
2023-01-29T06:57:24.320Z,68.84
2023-01-29T06:59:51.071Z,68.86
2023-01-29T07:02:18.151Z,69.03
2023-01-29T07:04:44.905Z,68.98
2023-01-29T07:07:13.387Z,68.63
2023-01-29T07:09:41.525Z,68.67
2023-01-29T07:12:09.521Z,68.69
2023-01-29T07:14:36.342Z,68.38
2023-01-29T07:17:03.479Z,68.08
2023-01-29T07:19:30.183Z,67.83
2023-01-29T07:21:56.972Z,67.58
2023-01-29T07:24:24.565Z,67.78
2023-01-29T07:26:51.631Z,67.85
2023-01-29T07:29:18.504Z,67.29
2023-01-29T07:31:45.371Z,67.28
2023-01-29T07:34:12.130Z,66.81
2023-01-29T07:36:38.843Z,66.66
2023-01-29T07:39:05.731Z,66.12
2023-01-29T07:41:32.508Z,66.06
2023-01-29T07:43:59.813Z,66.26
2023-01-29T07:46:26.574Z,66.16
2023-01-29T07:48:53.309Z,66.03
2023-01-29T07:51:21.462Z,66.21
2023-01-29T07:53:48.228Z,66.34
2023-01-29T07:56:15.161Z,66.41
2023-01-29T07:58:42.009Z,66.11
2023-01-29T08:01:09.019Z,66.33
2023-01-29T08:03:36.201Z,66.48
2023-01-29T08:06:04.381Z,66.56
2023-01-29T08:08:31.268Z,66.97
2023-01-29T08:11:01.620Z,67.61
2023-01-29T08:13:28.488Z,68.16
2023-01-29T08:15:59.861Z,68.73
2023-01-29T08:18:26.628Z,69.56
2023-01-29T08:20:53.378Z,70.08
2023-01-29T08:23:20.333Z,70.34
2023-01-29T08:25:47.202Z,70.66
2023-01-29T08:28:13.994Z,70.94
2023-01-29T08:30:40.923Z,71.38
2023-01-29T08:33:07.714Z,71.72
2023-01-29T08:35:34.451Z,71.85
2023-01-29T08:38:03.453Z,71.66
2023-01-29T08:40:33.403Z,71.44
2023-01-29T08:43:04.116Z,71.42
2023-01-29T08:45:35.030Z,71.39
2023-01-29T08:48:01.968Z,71.27
2023-01-29T08:50:30.623Z,71.19
2023-01-29T08:52:59.398Z,71.17
2023-01-29T08:55:27.101Z,71.21
2023-01-29T08:57:54.225Z,71.15
2023-01-29T09:00:21.346Z,70.88
2023-01-29T09:02:48.342Z,70.81
2023-01-29T09:05:15.628Z,70.31
2023-01-29T09:07:42.540Z,69.20
2023-01-29T09:10:12.045Z,68.40
2023-01-29T09:12:38.989Z,67.86
2023-01-29T09:15:06.341Z,67.85
2023-01-29T09:17:33.160Z,67.45
2023-01-29T09:19:59.964Z,67.12
2023-01-29T09:22:26.984Z,67.16
2023-01-29T09:24:54.971Z,67.13
2023-01-29T09:27:21.890Z,66.79
2023-01-29T09:29:48.762Z,66.75
2023-01-29T09:32:19.586Z,67.05
2023-01-29T09:34:50.101Z,67.31
2023-01-29T09:37:18.354Z,67.42
2023-01-29T09:39:45.701Z,67.92
2023-01-29T09:42:27.730Z,67.90
2023-01-29T09:45:02.261Z,66.70
2023-01-29T09:47:32.192Z,65.84
2023-01-29T09:50:01.186Z,65.13
2023-01-29T09:52:32.726Z,63.80
2023-01-29T09:55:00.580Z,63.47
2023-01-29T09:57:39.249Z,63.18
2023-01-29T10:00:07.380Z,62.60
2023-01-29T10:02:44.072Z,62.19
2023-01-29T10:05:32.191Z,62.26
2023-01-29T10:08:17.351Z,61.99
2023-01-29T10:10:50.469Z,62.31
2023-01-29T10:13:19.305Z,62.65
2023-01-29T10:15:51.052Z,62.22
2023-01-29T10:18:44.189Z,62.19
2023-01-29T10:21:27.450Z,61.55
2023-01-29T10:24:03.197Z,61.46
2023-01-29T10:26:33.410Z,62.07
2023-01-29T10:29:02.796Z,62.09
2023-01-29T10:31:34.387Z,62.52
2023-01-29T10:34:07.101Z,62.77
2023-01-29T10:36:46.820Z,62.66
2023-01-29T10:39:18.570Z,63.17
2023-01-29T10:42:16.270Z,62.68
2023-01-29T10:44:52.236Z,61.94
2023-01-29T10:47:42.007Z,61.86
2023-01-29T10:50:15.355Z,61.71
2023-01-29T10:52:50.075Z,61.31
2023-01-29T10:55:32.583Z,61.09
2023-01-29T10:58:06.092Z,60.90
2023-01-29T11:00:38.214Z,60.01
2023-01-29T11:03:28.462Z,59.14
2023-01-29T11:06:26.774Z,59.17
2023-01-29T11:09:10.052Z,58.88
2023-01-29T11:11:54.768Z,58.22
2023-01-29T11:14:26.843Z,58.80
2023-01-29T11:16:53.978Z,58.54
2023-01-29T11:19:38.418Z,58.56
2023-01-29T11:22:05.058Z,58.48
2023-01-29T11:24:31.777Z,58.84
2023-01-29T11:27:00.061Z,58.16
2023-01-29T11:29:39.079Z,57.74
2023-01-29T11:32:12.062Z,57.63
2023-01-29T11:34:59.120Z,57.23
2023-01-29T11:37:32.695Z,57.07
2023-01-29T11:39:59.446Z,57.16
2023-01-29T11:42:31.597Z,56.95
2023-01-29T11:44:58.379Z,55.57
2023-01-29T11:47:28.835Z,55.10
2023-01-29T11:50:13.784Z,54.21
2023-01-29T11:52:43.090Z,53.97
2023-01-29T11:55:16.237Z,53.68
2023-01-29T11:57:46.667Z,52.47
2023-01-29T12:00:24.831Z,52.73
2023-01-29T12:02:58.130Z,52.24
2023-01-29T12:05:26.750Z,52.71
2023-01-29T12:07:56.778Z,52.54
2023-01-29T12:10:40.498Z,52.63
2023-01-29T12:13:10.821Z,53.98
2023-01-29T12:15:38.913Z,55.05
2023-01-29T12:18:28.073Z,54.57
2023-01-29T12:21:00.664Z,55.18
2023-01-29T12:23:46.040Z,55.70
2023-01-29T12:26:25.710Z,55.31
2023-01-29T12:29:08.308Z,55.47
2023-01-29T12:31:55.371Z,55.24
2023-01-29T12:34:26.768Z,55.67
2023-01-29T12:37:24.751Z,56.44
2023-01-29T12:39:52.381Z,56.46
2023-01-29T12:42:22.992Z,56.46
2023-01-29T12:44:55.204Z,56.56
2023-01-29T12:47:31.320Z,56.47
2023-01-29T12:50:05.616Z,56.87
2023-01-29T12:52:40.955Z,57.16
2023-01-29T12:55:26.222Z,57.02
2023-01-29T12:57:58.946Z,57.02
2023-01-29T13:00:32.202Z,57.15
2023-01-29T13:03:08.102Z,57.67
2023-01-29T13:05:55.917Z,57.98
2023-01-29T13:08:44.483Z,57.76
2023-01-29T13:11:18.386Z,57.43
2023-01-29T13:13:56.748Z,56.14
2023-01-29T13:16:33.843Z,55.00
2023-01-29T13:19:06.237Z,54.46
2023-01-29T13:21:43.959Z,53.71
2023-01-29T13:24:16.262Z,53.56
2023-01-29T13:26:47.945Z,52.70
2023-01-29T13:29:31.057Z,51.80
2023-01-29T13:32:00.961Z,51.59
2023-01-29T13:34:42.730Z,51.46
2023-01-29T13:37:17.909Z,51.87
2023-01-29T13:39:51.577Z,52.13
2023-01-29T13:42:22.152Z,53.08
2023-01-29T13:44:51.654Z,53.17
2023-01-29T13:47:23.852Z,53.34
2023-01-29T13:49:59.437Z,52.94
2023-01-29T13:52:58.294Z,53.63
2023-01-29T13:55:32.005Z,53.91
2023-01-29T13:58:01.008Z,53.87
2023-01-29T14:00:35.341Z,54.71
2023-01-29T14:03:04.477Z,54.46
2023-01-29T14:05:31.273Z,54.46
2023-01-29T14:08:03.617Z,54.94
2023-01-29T14:10:32.963Z,55.32
2023-01-29T14:13:19.298Z,55.51
2023-01-29T14:16:13.674Z,55.87
2023-01-29T14:18:48.918Z,55.52
2023-01-29T14:21:16.734Z,56.09
2023-01-29T14:23:48.175Z,55.73
2023-01-29T14:26:30.229Z,56.12
2023-01-29T14:29:18.734Z,56.40
2023-01-29T14:31:53.905Z,57.22
2023-01-29T14:34:41.988Z,57.23
2023-01-29T14:37:16.117Z,57.20
2023-01-29T14:39:51.924Z,57.39
2023-01-29T14:42:27.866Z,57.63
2023-01-29T14:44:54.743Z,57.77
2023-01-29T14:47:43.598Z,58.00
2023-01-29T14:50:29.097Z,58.73
2023-01-29T14:53:05.319Z,59.15
2023-01-29T14:55:32.022Z,59.12
2023-01-29T14:57:59.617Z,59.19
2023-01-29T15:00:31.578Z,59.85
2023-01-29T15:03:01.916Z,59.89
2023-01-29T15:05:33.016Z,60.13
2023-01-29T15:08:08.474Z,60.32
2023-01-29T15:10:44.909Z,60.48
2023-01-29T15:13:28.995Z,60.30
2023-01-29T15:16:05.130Z,60.58
2023-01-29T15:18:39.893Z,60.79
2023-01-29T15:21:33.890Z,60.80
2023-01-29T15:24:06.531Z,60.59
2023-01-29T15:26:35.952Z,60.83
2023-01-29T15:29:05.934Z,61.28
2023-01-29T15:31:34.734Z,61.34
2023-01-29T15:34:07.281Z,61.44
2023-01-29T15:36:34.390Z,61.97
2023-01-29T15:39:19.019Z,62.27
2023-01-29T15:41:46.255Z,62.52
2023-01-29T15:44:16.829Z,62.87
2023-01-29T15:46:48.213Z,63.05
2023-01-29T15:49:31.106Z,63.24
2023-01-29T15:52:00.863Z,63.54
2023-01-29T15:54:31.629Z,63.50
2023-01-29T15:56:59.775Z,63.69
2023-01-29T15:59:31.276Z,63.74
2023-01-29T16:01:58.679Z,63.46
2023-01-29T16:04:29.128Z,63.74
2023-01-29T16:06:57.598Z,63.51
2023-01-29T16:09:26.770Z,63.75
2023-01-29T16:11:57.586Z,63.71
2023-01-29T16:14:26.041Z,63.59
2023-01-29T16:16:53.878Z,63.77
2023-01-29T16:19:21.327Z,64.21
2023-01-29T16:21:56.441Z,64.63
2023-01-29T16:24:25.037Z,64.65
2023-01-29T16:26:58.489Z,64.42
2023-01-29T16:29:31.519Z,64.63
2023-01-29T16:32:02.307Z,64.78
2023-01-29T16:34:31.601Z,64.77
2023-01-29T16:37:01.860Z,64.67
2023-01-29T16:39:33.904Z,64.42
2023-01-29T16:42:19.964Z,64.24
2023-01-29T16:44:51.276Z,64.15
2023-01-29T16:47:35.052Z,64.20
2023-01-29T16:50:12.623Z,64.24
2023-01-29T16:52:39.434Z,64.27
2023-01-29T16:55:13.500Z,64.43
2023-01-29T16:57:40.539Z,64.68
2023-01-29T17:00:19.080Z,64.81
2023-01-29T17:02:46.021Z,64.85
2023-01-29T17:05:26.441Z,65.02
2023-01-29T17:07:57.636Z,64.76
2023-01-29T17:10:26.560Z,64.84
2023-01-29T17:12:59.142Z,64.50
2023-01-29T17:15:43.237Z,64.57
2023-01-29T17:18:20.511Z,64.40
2023-01-29T17:20:48.508Z,64.47
2023-01-29T17:23:15.375Z,64.29
2023-01-29T17:25:42.720Z,64.35
2023-01-29T17:28:13.588Z,64.61
2023-01-29T17:30:40.461Z,64.59
2023-01-29T17:33:16.856Z,64.65
2023-01-29T17:35:45.296Z,64.54
2023-01-29T17:38:24.268Z,64.51
2023-01-29T17:41:09.306Z,64.74
2023-01-29T17:43:36.260Z,64.64
2023-01-29T17:46:03.290Z,64.49
2023-01-29T17:48:31.165Z,64.50
2023-01-29T17:51:03.083Z,64.68
2023-01-29T17:53:44.251Z,64.54
2023-01-29T17:56:17.159Z,64.65
2023-01-29T17:58:44.716Z,64.86
2023-01-29T18:01:12.262Z,65.00
2023-01-29T18:03:39.036Z,64.85
2023-01-29T18:06:09.160Z,64.94
2023-01-29T18:08:38.275Z,65.08
2023-01-29T18:11:05.804Z,64.99
2023-01-29T18:13:33.070Z,65.09
2023-01-29T18:16:00.123Z,65.29
2023-01-29T18:18:27.061Z,65.12
2023-01-29T18:20:53.906Z,65.27
2023-01-29T18:23:20.627Z,65.19
2023-01-29T18:25:47.432Z,64.93
2023-01-29T18:28:17.364Z,64.83
2023-01-29T18:30:47.404Z,65.12
2023-01-29T18:33:16.462Z,65.08
2023-01-29T18:35:45.764Z,65.20
2023-01-29T18:38:12.776Z,65.10
2023-01-29T18:41:03.339Z,65.25
2023-01-29T18:43:30.124Z,65.25
2023-01-29T18:45:59.915Z,65.24
2023-01-29T18:48:26.996Z,64.98
2023-01-29T18:50:54.033Z,65.13
2023-01-29T18:53:20.982Z,65.21
2023-01-29T18:55:57.998Z,65.49
2023-01-29T18:58:27.798Z,65.80
2023-01-29T19:01:09.762Z,65.83
2023-01-29T19:03:37.443Z,66.09
2023-01-29T19:06:06.509Z,65.94
2023-01-29T19:08:34.199Z,66.31
2023-01-29T19:11:04.098Z,66.55
2023-01-29T19:13:32.338Z,66.69
2023-01-29T19:15:59.469Z,66.92
2023-01-29T19:18:27.826Z,67.09
2023-01-29T19:20:55.770Z,67.43
2023-01-29T19:23:23.346Z,67.75
2023-01-29T19:25:50.412Z,67.79
2023-01-29T19:28:17.158Z,67.93
2023-01-29T19:30:44.164Z,67.89
2023-01-29T19:33:11.266Z,67.88
2023-01-29T19:35:38.771Z,67.99
2023-01-29T19:38:05.824Z,68.41
2023-01-29T19:40:32.962Z,68.43
2023-01-29T19:42:59.782Z,68.37
2023-01-29T19:45:49.706Z,68.62
2023-01-29T19:48:14.912Z,68.76
2023-01-29T19:50:42.580Z,68.92
2023-01-29T19:53:09.868Z,68.73
2023-01-29T19:55:36.885Z,68.75
2023-01-29T19:58:05.053Z,68.48
2023-01-29T20:00:32.094Z,68.61
2023-01-29T20:02:59.087Z,68.58
2023-01-29T20:05:27.430Z,68.06
2023-01-29T20:07:54.169Z,68.19
2023-01-29T20:10:21.268Z,68.18
2023-01-29T20:12:49.069Z,67.98
2023-01-29T20:15:15.956Z,68.05
2023-01-29T20:17:45.685Z,68.35
2023-01-29T20:20:12.938Z,68.34
2023-01-29T20:22:39.777Z,68.65
2023-01-29T20:25:06.978Z,68.62
2023-01-29T20:27:33.823Z,69.05
2023-01-29T20:30:00.684Z,69.08
2023-01-29T20:32:27.619Z,69.42
2023-01-29T20:34:54.591Z,69.54
2023-01-29T20:37:22.528Z,69.68
2023-01-29T20:39:49.310Z,69.63
2023-01-29T20:42:16.241Z,69.66
2023-01-29T20:44:43.331Z,69.63
2023-01-29T20:47:10.345Z,69.63
2023-01-29T20:49:37.262Z,69.61
2023-01-29T20:52:04.033Z,69.56
2023-01-29T20:54:33.291Z,69.45
2023-01-29T20:57:00.531Z,69.26
2023-01-29T20:59:29.058Z,69.07
2023-01-29T21:01:56.217Z,69.15
2023-01-29T21:04:23.247Z,69.10
2023-01-29T21:06:50.027Z,68.51
2023-01-29T21:09:16.984Z,68.24
2023-01-29T21:11:45.203Z,68.16
2023-01-29T21:14:12.249Z,68.07
2023-01-29T21:16:39.301Z,68.07
2023-01-29T21:19:06.592Z,68.16
2023-01-29T21:21:33.499Z,68.02
2023-01-29T21:24:00.489Z,68.26
2023-01-29T21:26:27.508Z,68.13
2023-01-29T21:28:54.262Z,68.35
2023-01-29T21:31:21.925Z,68.40
2023-01-29T21:33:49.739Z,68.33
2023-01-29T21:36:16.825Z,68.27
2023-01-29T21:38:43.686Z,68.35
2023-01-29T21:41:10.593Z,68.39
2023-01-29T21:43:39.010Z,68.18
2023-01-29T21:46:12.064Z,68.36
2023-01-29T21:48:40.274Z,68.29
2023-01-29T21:51:07.579Z,68.59
2023-01-29T21:53:34.977Z,68.81
2023-01-29T21:56:03.275Z,69.05
2023-01-29T21:58:30.155Z,69.13
2023-01-29T22:00:57.493Z,69.19
2023-01-29T22:03:47.020Z,69.25
2023-01-29T22:06:14.304Z,69.21
2023-01-29T22:08:41.052Z,69.04
2023-01-29T22:11:08.208Z,69.11
2023-01-29T22:13:35.228Z,69.03
2023-01-29T22:16:02.141Z,69.06
2023-01-29T22:18:28.913Z,69.17
2023-01-29T22:20:57.596Z,69.22
2023-01-29T22:23:25.061Z,69.42
2023-01-29T22:25:51.816Z,69.63
2023-01-29T22:28:18.762Z,69.83
2023-01-29T22:30:45.598Z,69.88
2023-01-29T22:33:12.887Z,70.04
2023-01-29T22:35:39.772Z,70.09
2023-01-29T22:38:06.665Z,69.96
2023-01-29T22:40:33.431Z,70.07
2023-01-29T22:43:00.301Z,70.06
2023-01-29T22:45:27.367Z,70.04
2023-01-29T22:47:54.198Z,70.16
2023-01-29T22:50:21.127Z,70.04
2023-01-29T22:52:54.110Z,70.09
2023-01-29T22:55:21.318Z,70.08
2023-01-29T22:57:49.954Z,69.86
2023-01-29T23:00:17.767Z,69.83
2023-01-29T23:02:47.441Z,69.97
2023-01-29T23:05:14.408Z,69.67
2023-01-29T23:07:41.467Z,69.51
2023-01-29T23:10:10.164Z,69.27
2023-01-29T23:12:37.575Z,69.41
2023-01-29T23:15:04.992Z,69.26
2023-01-29T23:17:32.057Z,69.22
2023-01-29T23:19:58.845Z,69.36
2023-01-29T23:22:25.558Z,69.17
2023-01-29T23:24:52.904Z,69.05
2023-01-29T23:27:20.092Z,68.87
2023-01-29T23:29:48.582Z,68.68
2023-01-29T23:32:18.616Z,68.33
2023-01-29T23:34:45.435Z,68.25
2023-01-29T23:37:12.406Z,68.12
2023-01-29T23:39:39.194Z,68.13
2023-01-29T23:42:05.973Z,68.03
2023-01-29T23:44:32.736Z,68.09
2023-01-29T23:46:59.836Z,68.03
2023-01-29T23:49:26.610Z,67.97
2023-01-29T23:51:53.585Z,67.87
2023-01-29T23:54:20.406Z,67.98
2023-01-29T23:56:47.314Z,67.59
2023-01-29T23:59:15.276Z,67.18
